createdAt,value
2018-05-24T00:00:46.627Z,92.50
2018-05-24T00:03:14.021Z,92.60
2018-05-24T00:05:40.244Z,92.80
2018-05-24T00:08:06.455Z,92.60
2018-05-24T00:10:33.702Z,92.60
2018-05-24T00:13:00.104Z,92.60
2018-05-24T00:15:26.216Z,92.50
2018-05-24T00:17:52.502Z,92.70
2018-05-24T00:20:18.649Z,92.80
2018-05-24T00:22:44.823Z,93.00
2018-05-24T00:25:11.193Z,93.00
2018-05-24T00:27:37.324Z,93.00
2018-05-24T00:30:03.731Z,92.50
2018-05-24T00:32:36.791Z,92.50
2018-05-24T00:35:02.946Z,92.40
2018-05-24T00:37:29.114Z,92.00
2018-05-24T00:39:55.230Z,91.90
2018-05-24T00:42:22.033Z,91.90
2018-05-24T00:44:50.145Z,92.10
2018-05-24T00:47:16.306Z,92.00
2018-05-24T00:49:42.675Z,92.30
2018-05-24T00:52:08.925Z,92.20
2018-05-24T00:54:35.126Z,92.20
2018-05-24T00:57:01.356Z,92.10
2018-05-24T00:59:27.954Z,92.00
2018-05-24T01:01:54.138Z,92.00
2018-05-24T01:04:20.322Z,91.80
2018-05-24T01:06:46.395Z,91.80
2018-05-24T01:09:12.622Z,92.20
2018-05-24T01:11:39.141Z,92.00
2018-05-24T01:14:05.400Z,92.00
2018-05-24T01:16:34.826Z,92.00
2018-05-24T01:19:01.054Z,91.70
2018-05-24T01:21:27.289Z,91.50
2018-05-24T01:23:54.026Z,91.60
2018-05-24T01:26:20.393Z,91.40
2018-05-24T01:28:46.578Z,91.40
2018-05-24T01:31:12.971Z,91.20
2018-05-24T01:33:39.145Z,91.00
2018-05-24T01:36:05.717Z,91.10
2018-05-24T01:38:32.449Z,91.40
2018-05-24T01:40:58.570Z,91.10
2018-05-24T01:43:24.699Z,91.00
2018-05-24T01:45:52.357Z,91.10
2018-05-24T01:48:18.503Z,91.00
2018-05-24T01:50:44.654Z,91.10
2018-05-24T01:53:14.275Z,91.00
2018-05-24T01:55:41.400Z,91.30
2018-05-24T01:58:07.584Z,91.20
2018-05-24T02:00:39.746Z,91.30
2018-05-24T02:03:05.899Z,91.40
2018-05-24T02:05:32.186Z,91.40
2018-05-24T02:07:58.447Z,91.40
2018-05-24T02:10:26.595Z,91.30
2018-05-24T02:12:53.115Z,91.10
2018-05-24T02:15:19.589Z,91.00
2018-05-24T02:17:45.715Z,91.10
2018-05-24T02:20:11.841Z,91.10
2018-05-24T02:22:37.980Z,91.10
2018-05-24T02:25:04.163Z,91.20
2018-05-24T02:27:30.317Z,91.20
2018-05-24T02:30:00.187Z,91.30
2018-05-24T02:32:26.358Z,91.40
2018-05-24T02:34:52.563Z,91.60
2018-05-24T02:37:18.721Z,91.40
2018-05-24T02:39:44.856Z,91.70
2018-05-24T02:42:11.321Z,92.10
2018-05-24T02:44:37.758Z,92.30
2018-05-24T02:47:03.929Z,92.40
2018-05-24T02:49:30.082Z,92.50
2018-05-24T02:51:56.278Z,92.50
2018-05-24T02:54:22.511Z,92.40
2018-05-24T02:56:49.028Z,92.30
2018-05-24T02:59:15.179Z,92.20
2018-05-24T03:01:41.451Z,92.20
2018-05-24T03:04:07.537Z,92.30
2018-05-24T03:06:33.705Z,92.30
2018-05-24T03:08:59.850Z,92.30
2018-05-24T03:11:32.822Z,92.10
2018-05-24T03:14:01.942Z,92.00
2018-05-24T03:16:28.083Z,92.00
2018-05-24T03:18:54.232Z,92.10
2018-05-24T03:21:20.387Z,92.00
2018-05-24T03:23:46.542Z,92.30
2018-05-24T03:26:14.125Z,92.40
2018-05-24T03:28:40.249Z,92.40
2018-05-24T03:31:06.680Z,92.60
2018-05-24T03:33:32.869Z,92.50
2018-05-24T03:35:59.150Z,92.50
2018-05-24T03:38:25.314Z,92.50
2018-05-24T03:40:52.167Z,92.20
2018-05-24T03:43:18.331Z,92.20
2018-05-24T03:45:44.924Z,91.90
2018-05-24T03:48:11.302Z,91.70
2018-05-24T03:50:37.473Z,91.60
2018-05-24T03:53:05.494Z,91.80
2018-05-24T03:55:31.716Z,91.60
2018-05-24T03:57:57.937Z,91.70
2018-05-24T04:00:36.377Z,92.10
2018-05-24T04:03:15.604Z,92.20
2018-05-24T04:05:44.284Z,92.10
2018-05-24T04:08:10.382Z,92.30
2018-05-24T04:10:36.532Z,92.50
2018-05-24T04:13:02.663Z,92.50
2018-05-24T04:15:28.809Z,92.50
2018-05-24T04:17:55.669Z,92.20
2018-05-24T04:20:22.105Z,92.00
2018-05-24T04:22:49.013Z,91.80
2018-05-24T04:25:15.236Z,91.70
2018-05-24T04:27:41.376Z,92.10
2018-05-24T04:30:07.572Z,92.30
2018-05-24T04:32:33.811Z,92.60
2018-05-24T04:35:00.152Z,92.80
2018-05-24T04:37:26.296Z,92.70
2018-05-24T04:39:52.437Z,92.80
2018-05-24T04:42:19.337Z,92.20
2018-05-24T04:44:45.647Z,92.20
2018-05-24T04:47:11.903Z,91.70
2018-05-24T04:49:38.093Z,91.80
2018-05-24T04:52:04.535Z,92.00
2018-05-24T04:54:30.913Z,92.20
2018-05-24T04:56:57.021Z,92.10
2018-05-24T04:59:23.205Z,92.00
2018-05-24T05:01:49.375Z,92.20
2018-05-24T05:04:15.553Z,92.00
2018-05-24T05:06:41.759Z,91.90
2018-05-24T05:09:07.977Z,91.90
2018-05-24T05:11:34.865Z,91.70
2018-05-24T05:14:01.079Z,91.70
2018-05-24T05:16:27.237Z,91.70
2018-05-24T05:18:53.394Z,91.60
2018-05-24T05:21:19.585Z,91.30
2018-05-24T05:23:50.158Z,91.00
2018-05-24T05:26:16.523Z,91.00
2018-05-24T05:28:45.255Z,90.40
2018-05-24T05:31:12.492Z,90.20
2018-05-24T05:33:50.679Z,90.40
2018-05-24T05:36:17.117Z,90.20
2018-05-24T05:38:43.252Z,89.40
2018-05-24T05:41:09.411Z,88.20
2018-05-24T05:43:35.597Z,86.80
2018-05-24T05:46:01.769Z,86.50
2018-05-24T05:48:28.032Z,86.40
2018-05-24T05:50:54.206Z,85.90
2018-05-24T05:53:20.764Z,86.00
2018-05-24T05:55:46.968Z,87.30
2018-05-24T05:58:13.111Z,88.80
2018-05-24T06:00:39.260Z,87.30
2018-05-24T06:03:06.078Z,85.70
2018-05-24T06:05:32.249Z,85.10
2018-05-24T06:07:58.465Z,84.10
2018-05-24T06:10:24.667Z,83.20
2018-05-24T06:15:23.111Z,81.60
2018-05-24T06:17:49.222Z,79.00
2018-05-24T06:20:15.360Z,78.60
2018-05-24T06:22:41.491Z,80.00
2018-05-24T06:25:10.715Z,81.30
2018-05-24T06:27:36.908Z,81.00
2018-05-24T06:30:03.148Z,82.20
2018-05-24T06:32:29.582Z,81.30
2018-05-24T06:34:55.734Z,80.40
2018-05-24T06:37:21.835Z,80.00
2018-05-24T06:39:48.180Z,80.90
2018-05-24T06:42:15.449Z,80.20
2018-05-24T06:44:41.597Z,80.30
2018-05-24T06:47:08.789Z,81.00
2018-05-24T06:49:34.918Z,78.50
2018-05-24T06:52:01.132Z,78.50
2018-05-24T06:54:33.512Z,78.50
2018-05-24T06:56:59.743Z,77.00
2018-05-24T06:59:25.991Z,74.80
2018-05-24T07:01:52.101Z,72.60
2018-05-24T07:04:18.408Z,73.80
2018-05-24T07:06:44.546Z,72.30
2018-05-24T07:09:10.659Z,71.30
2018-05-24T07:11:36.878Z,72.50
2018-05-24T07:14:03.027Z,73.80
2018-05-24T07:16:29.184Z,74.60
2018-05-24T07:18:55.417Z,74.80
2018-05-24T07:21:21.562Z,75.10
2018-05-24T07:23:48.088Z,75.70
2018-05-24T07:26:15.078Z,78.60
2018-05-24T07:28:41.244Z,77.80
2018-05-24T07:31:13.258Z,77.90
2018-05-24T07:33:39.407Z,77.80
2018-05-24T07:36:05.525Z,76.90
2018-05-24T07:38:31.592Z,76.70
2018-05-24T07:40:57.874Z,76.80
2018-05-24T07:43:24.113Z,78.10
2018-05-24T07:45:50.282Z,77.30
2018-05-24T07:48:16.501Z,78.20
2018-05-24T07:50:42.622Z,77.20
2018-05-24T07:53:08.702Z,77.00
2018-05-24T07:55:35.063Z,76.60
2018-05-24T07:58:01.476Z,76.00
2018-05-24T08:00:27.604Z,75.70
2018-05-24T08:02:53.781Z,75.10
2018-05-24T08:05:20.139Z,74.30
2018-05-24T08:07:46.268Z,74.30
2018-05-24T08:10:12.399Z,74.60
2018-05-24T08:12:38.543Z,73.10
2018-05-24T08:15:04.649Z,72.80
2018-05-24T08:17:30.821Z,71.70
2018-05-24T08:19:57.023Z,70.70
2018-05-24T08:22:23.409Z,72.30
2018-05-24T08:24:50.219Z,72.70
2018-05-24T08:27:16.373Z,72.60
2018-05-24T08:29:42.539Z,73.60
2018-05-24T08:32:08.678Z,73.20
2018-05-24T08:34:34.795Z,74.30
2018-05-24T08:37:00.878Z,75.40
2018-05-24T08:39:26.982Z,76.60
2018-05-24T08:41:53.100Z,75.10
2018-05-24T08:44:19.237Z,75.50
2018-05-24T08:46:45.358Z,74.60
2018-05-24T08:49:11.521Z,73.80
2018-05-24T08:51:37.700Z,73.50
2018-05-24T08:54:04.064Z,72.00
2018-05-24T08:56:30.977Z,67.80
2018-05-24T08:58:57.925Z,66.50
2018-05-24T09:01:24.922Z,65.60
2018-05-24T09:03:50.942Z,65.50
2018-05-24T09:06:17.076Z,65.20
2018-05-24T09:08:43.162Z,64.10
2018-05-24T09:11:09.384Z,64.10
2018-05-24T09:13:35.500Z,66.90
2018-05-24T09:16:02.467Z,69.70
2018-05-24T09:18:28.573Z,69.70
2018-05-24T09:20:54.694Z,69.60
2018-05-24T09:23:20.821Z,68.10
2018-05-24T09:25:46.939Z,68.60
2018-05-24T09:28:13.202Z,68.40
2018-05-24T09:30:39.433Z,70.00
2018-05-24T09:33:05.692Z,69.80
2018-05-24T09:35:31.829Z,68.70
2018-05-24T09:37:57.957Z,67.70
2018-05-24T09:40:24.124Z,69.20
2018-05-24T09:42:50.372Z,70.10
2018-05-24T09:45:16.510Z,71.50
2018-05-24T09:47:42.651Z,71.00
2018-05-24T09:50:08.970Z,69.50
2018-05-24T09:52:35.161Z,68.20
2018-05-24T09:55:01.248Z,65.50
2018-05-24T09:57:27.422Z,64.70
2018-05-24T09:59:53.580Z,65.30
2018-05-24T10:02:19.681Z,65.40
2018-05-24T10:04:46.074Z,63.80
2018-05-24T10:07:12.078Z,63.60
2018-05-24T10:09:39.151Z,66.80
2018-05-24T10:12:05.270Z,66.70
2018-05-24T10:14:31.385Z,67.40
2018-05-24T10:16:58.598Z,66.70
2018-05-24T10:19:24.770Z,66.60
2018-05-24T10:21:51.245Z,66.00
2018-05-24T10:24:17.441Z,66.30
2018-05-24T10:26:43.572Z,67.30
2018-05-24T10:29:09.803Z,67.30
2018-05-24T10:31:36.026Z,68.10
2018-05-24T10:34:02.187Z,68.20
2018-05-24T10:36:28.550Z,68.70
2018-05-24T10:38:55.639Z,67.90
2018-05-24T10:41:21.823Z,67.90
2018-05-24T10:43:48.667Z,67.90
2018-05-24T10:46:14.863Z,67.90
2018-05-24T10:48:41.022Z,67.60
2018-05-24T10:51:07.933Z,66.40
2018-05-24T10:53:34.101Z,66.30
2018-05-24T10:56:00.468Z,65.70
2018-05-24T10:58:26.548Z,65.00
2018-05-24T11:00:53.607Z,66.30
2018-05-24T11:03:20.067Z,66.10
2018-05-24T11:05:46.189Z,65.70
2018-05-24T11:08:13.391Z,64.50
2018-05-24T11:10:39.564Z,64.40
2018-05-24T11:13:05.841Z,63.40
2018-05-24T11:15:32.057Z,63.40
2018-05-24T11:17:58.353Z,63.40
2018-05-24T11:20:24.785Z,63.30
2018-05-24T11:22:50.977Z,62.50
2018-05-24T11:25:17.979Z,60.20
2018-05-24T11:27:44.184Z,60.10
2018-05-24T11:30:10.375Z,58.80
2018-05-24T11:32:37.236Z,59.90
2018-05-24T11:35:03.479Z,59.80
2018-05-24T11:37:29.766Z,59.60
2018-05-24T11:39:56.829Z,58.70
2018-05-24T11:42:22.962Z,57.50
2018-05-24T11:44:49.726Z,56.20
2018-05-24T11:47:16.632Z,57.60
2018-05-24T11:49:42.809Z,57.50
2018-05-24T11:52:09.052Z,56.80
2018-05-24T11:54:35.245Z,57.30
2018-05-24T11:57:01.626Z,57.00
2018-05-24T11:59:27.818Z,57.90
2018-05-24T12:01:54.186Z,57.90
2018-05-24T12:04:21.004Z,59.50
2018-05-24T12:06:47.244Z,59.50
2018-05-24T12:09:13.427Z,59.50
2018-05-24T12:11:39.562Z,60.00
2018-05-24T12:14:05.800Z,60.30
2018-05-24T12:16:31.933Z,60.60
2018-05-24T12:18:58.035Z,60.30
2018-05-24T12:21:24.267Z,61.00
2018-05-24T12:23:50.427Z,59.60
2018-05-24T12:26:16.589Z,59.30
2018-05-24T12:28:43.571Z,58.90
2018-05-24T12:31:10.152Z,58.90
2018-05-24T12:33:36.326Z,59.50
2018-05-24T12:36:02.470Z,59.80
2018-05-24T12:38:28.984Z,59.70
2018-05-24T12:40:55.721Z,59.10
2018-05-24T12:43:21.878Z,59.40
2018-05-24T12:45:47.993Z,58.90
2018-05-24T12:48:14.280Z,59.20
2018-05-24T12:50:40.448Z,58.80
2018-05-24T12:53:06.574Z,57.70
2018-05-24T12:55:32.893Z,56.80
2018-05-24T12:57:59.062Z,57.50
2018-05-24T13:00:25.365Z,57.80
2018-05-24T13:02:53.207Z,57.10
2018-05-24T13:05:19.435Z,56.80
2018-05-24T13:07:45.622Z,56.20
2018-05-24T13:10:11.823Z,56.10
2018-05-24T13:12:38.124Z,54.80
2018-05-24T13:15:04.494Z,55.70
2018-05-24T13:17:30.742Z,55.30
2018-05-24T13:19:56.914Z,56.60
2018-05-24T13:22:23.069Z,56.80
2018-05-24T13:24:49.218Z,57.40
2018-05-24T13:27:15.449Z,57.30
2018-05-24T13:29:41.677Z,56.40
2018-05-24T13:32:07.916Z,56.20
2018-05-24T13:34:34.172Z,57.00
2018-05-24T13:37:00.292Z,56.90
2018-05-24T13:39:26.488Z,57.20
2018-05-24T13:41:52.657Z,58.60
2018-05-24T13:44:18.771Z,58.90
2018-05-24T13:46:44.961Z,57.90
2018-05-24T13:49:11.131Z,57.10
2018-05-24T13:51:37.232Z,58.00
2018-05-24T13:54:03.340Z,57.90
2018-05-24T13:56:29.445Z,57.40
2018-05-24T13:58:55.541Z,56.40
2018-05-24T14:01:21.929Z,56.00
2018-05-24T14:03:48.130Z,56.60
2018-05-24T14:06:14.312Z,56.70
2018-05-24T14:08:40.458Z,55.70
2018-05-24T14:11:06.636Z,55.80
2018-05-24T14:13:32.880Z,55.40
2018-05-24T14:15:59.025Z,54.40
2018-05-24T14:18:25.786Z,55.40
2018-05-24T14:20:51.904Z,56.00
2018-05-24T14:23:18.117Z,56.20
2018-05-24T14:25:45.501Z,55.60
2018-05-24T14:28:11.594Z,55.10
2018-05-24T14:30:38.033Z,55.40
2018-05-24T14:33:04.192Z,55.30
2018-05-24T14:35:30.280Z,54.50
2018-05-24T14:37:56.512Z,51.50
2018-05-24T14:40:22.692Z,47.10
2018-05-24T14:42:49.609Z,43.40
2018-05-24T14:45:15.780Z,43.40
2018-05-24T14:47:41.928Z,43.70
2018-05-24T14:50:08.070Z,43.10
2018-05-24T14:52:34.383Z,43.30
2018-05-24T14:55:00.678Z,43.60
2018-05-24T14:57:26.975Z,42.20
2018-05-24T14:59:53.174Z,42.70
2018-05-24T15:02:19.333Z,42.50
2018-05-24T15:04:45.428Z,42.40
2018-05-24T15:07:11.737Z,42.00
2018-05-24T15:09:37.853Z,41.30
2018-05-24T15:12:04.075Z,41.10
2018-05-24T15:14:30.378Z,40.80
2018-05-24T15:16:56.621Z,40.00
2018-05-24T15:19:22.957Z,39.70
2018-05-24T15:21:49.130Z,39.50
2018-05-24T15:24:15.763Z,39.80
2018-05-24T15:26:41.941Z,39.40
2018-05-24T15:29:08.042Z,38.00
2018-05-24T15:31:34.448Z,39.10
2018-05-24T15:34:00.675Z,39.50
2018-05-24T15:36:26.905Z,39.10
2018-05-24T15:38:53.067Z,39.40
2018-05-24T15:41:19.255Z,39.20
2018-05-24T15:43:45.708Z,39.30
2018-05-24T15:46:11.926Z,38.50
2018-05-24T15:48:38.097Z,37.70
2018-05-24T15:51:04.319Z,38.70
2018-05-24T15:53:30.502Z,39.10
2018-05-24T15:55:56.698Z,38.60
2018-05-24T15:58:22.941Z,38.90
2018-05-24T16:00:49.095Z,40.00
2018-05-24T16:03:15.814Z,40.20
2018-05-24T16:05:42.138Z,40.30
2018-05-24T16:08:08.364Z,40.70
2018-05-24T16:10:34.507Z,39.90
2018-05-24T16:13:00.855Z,40.40
2018-05-24T16:15:27.255Z,40.40
2018-05-24T16:17:53.495Z,40.50
2018-05-24T16:20:19.830Z,39.70
2018-05-24T16:22:47.448Z,38.20
2018-05-24T16:25:13.897Z,39.60
2018-05-24T16:27:40.257Z,39.80
2018-05-24T16:30:06.570Z,39.80
2018-05-24T16:32:32.709Z,39.80
2018-05-24T16:34:58.856Z,38.60
2018-05-24T16:37:25.883Z,39.20
2018-05-24T16:39:52.478Z,39.20
2018-05-24T16:42:25.528Z,40.20
2018-05-24T16:44:52.173Z,40.20
2018-05-24T16:47:18.615Z,40.40
2018-05-24T16:49:44.863Z,40.70
2018-05-24T16:52:18.277Z,40.30
2018-05-24T16:54:45.257Z,39.40
2018-05-24T16:57:11.802Z,39.30
2018-05-24T16:59:41.105Z,39.60
2018-05-24T17:02:07.387Z,39.60
2018-05-24T17:04:33.811Z,40.70
2018-05-24T17:06:59.978Z,40.40
2018-05-24T17:09:26.125Z,41.20
2018-05-24T17:11:52.775Z,42.00
2018-05-24T17:14:19.345Z,43.20
2018-05-24T17:16:45.817Z,43.80
2018-05-24T17:19:12.998Z,43.80
2018-05-24T17:21:42.967Z,43.80
2018-05-24T17:24:10.657Z,44.40
2018-05-24T17:26:44.511Z,44.30
2018-05-24T17:29:11.072Z,44.80
2018-05-24T17:31:37.294Z,45.60
2018-05-24T17:34:03.516Z,45.80
2018-05-24T17:36:32.436Z,45.90
2018-05-24T17:39:02.985Z,46.50
2018-05-24T17:41:29.444Z,46.50
2018-05-24T17:43:56.239Z,46.30
2018-05-24T17:46:26.177Z,46.10
2018-05-24T17:49:08.143Z,46.00
2018-05-24T17:51:53.581Z,45.70
2018-05-24T17:54:23.136Z,45.90
2018-05-24T17:56:53.344Z,46.00
2018-05-24T17:59:25.364Z,46.20
2018-05-24T18:01:52.013Z,46.40
2018-05-24T18:04:21.083Z,46.70
2018-05-24T18:09:47.302Z,47.20
2018-05-24T18:12:15.259Z,48.40
2018-05-24T18:14:41.650Z,48.30
2018-05-24T18:17:08.104Z,48.70
2018-05-24T18:19:35.326Z,49.10
2018-05-24T18:22:01.665Z,49.10
2018-05-24T18:24:27.908Z,49.30
2018-05-24T18:26:54.183Z,49.30
2018-05-24T18:29:28.560Z,49.80
2018-05-24T18:31:54.831Z,50.50
2018-05-24T18:34:28.069Z,51.60
2018-05-24T18:39:42.694Z,52.00
2018-05-24T18:42:13.562Z,52.30
2018-05-24T18:44:40.850Z,52.60
2018-05-24T18:47:16.553Z,52.90
2018-05-24T18:49:50.838Z,54.40
2018-05-24T18:52:17.254Z,54.40
2018-05-24T18:55:08.193Z,55.40
2018-05-24T18:57:34.754Z,55.40
2018-05-24T19:00:04.667Z,56.10
2018-05-24T19:02:37.767Z,56.10
2018-05-24T19:05:08.307Z,56.70
2018-05-24T19:07:36.114Z,56.70
2018-05-24T19:10:15.901Z,57.90
2018-05-24T19:12:43.345Z,57.90
2018-05-24T19:15:10.149Z,57.60
2018-05-24T19:17:38.472Z,58.00
2018-05-24T19:20:05.789Z,58.20
2018-05-24T19:22:32.360Z,58.70
2018-05-24T19:24:59.115Z,58.70
2018-05-24T19:27:28.250Z,59.00
2018-05-24T19:29:54.509Z,59.60
2018-05-24T19:32:20.847Z,60.10
2018-05-24T19:34:47.342Z,61.00
2018-05-24T19:37:13.633Z,61.50
2018-05-24T19:39:40.827Z,61.30
2018-05-24T19:42:07.304Z,61.70
2018-05-24T19:44:33.518Z,61.40
2018-05-24T19:47:00.033Z,62.30
2018-05-24T19:49:26.330Z,62.30
2018-05-24T19:51:52.617Z,63.30
2018-05-24T19:54:19.073Z,63.60
2018-05-24T19:56:45.193Z,63.80
2018-05-24T19:59:20.013Z,64.90
2018-05-24T20:01:46.591Z,64.90
2018-05-24T20:04:28.985Z,65.80
2018-05-24T20:07:01.507Z,65.70
2018-05-24T20:12:25.280Z,65.80
2018-05-24T20:14:53.861Z,64.70
2018-05-24T20:17:20.978Z,64.40
2018-05-24T20:19:47.666Z,64.30
2018-05-24T20:22:14.577Z,64.90
2018-05-24T20:24:41.539Z,65.80
2018-05-24T20:27:14.219Z,66.90
2018-05-24T20:29:57.325Z,66.90
2018-05-24T20:32:24.533Z,67.00
2018-05-24T20:34:51.338Z,67.00
2018-05-24T20:37:18.119Z,67.60
2018-05-24T20:39:44.540Z,67.60
2018-05-24T20:42:14.527Z,68.00
2018-05-24T20:44:41.335Z,68.10
2018-05-24T20:47:07.710Z,67.90
2018-05-24T20:49:33.923Z,67.30
2018-05-24T20:52:00.366Z,66.10
2018-05-24T20:54:37.584Z,65.60
2018-05-24T20:57:04.006Z,64.90
2018-05-24T20:59:30.519Z,62.00
2018-05-24T21:01:57.469Z,60.60
2018-05-24T21:04:23.789Z,59.90
2018-05-24T21:06:50.130Z,60.00
2018-05-24T21:09:18.795Z,58.70
2018-05-24T21:11:45.994Z,58.70
2018-05-24T21:14:12.191Z,58.80
2018-05-24T21:16:42.727Z,58.60
2018-05-24T21:19:09.040Z,58.10
2018-05-24T21:21:39.367Z,58.20
2018-05-24T21:24:05.908Z,58.40
2018-05-24T21:26:32.370Z,57.70
2018-05-24T21:28:58.785Z,58.10
2018-05-24T21:31:25.258Z,57.90
2018-05-24T21:33:52.927Z,57.60
2018-05-24T21:36:20.020Z,57.20
2018-05-24T21:38:46.242Z,57.20
2018-05-24T21:41:12.480Z,58.20
2018-05-24T21:43:45.330Z,58.70
2018-05-24T21:46:11.618Z,57.90
2018-05-24T21:48:37.805Z,58.20
2018-05-24T21:51:04.460Z,59.60
2018-05-24T21:53:30.819Z,58.30
2018-05-24T21:55:57.766Z,60.60
2018-05-24T21:58:24.030Z,60.60
2018-05-24T22:00:50.316Z,61.90
2018-05-24T22:03:17.436Z,61.10
2018-05-24T22:05:44.444Z,61.10
2018-05-24T22:10:43.748Z,62.30
2018-05-24T22:13:10.031Z,60.80
2018-05-24T22:15:36.971Z,60.20
2018-05-24T22:18:03.288Z,59.40
2018-05-24T22:20:29.665Z,59.50
2018-05-24T22:25:35.767Z,59.20
2018-05-24T22:28:02.274Z,59.30
2018-05-24T22:30:34.117Z,59.00
2018-05-24T22:33:12.321Z,59.00
2018-05-24T22:38:51.253Z,59.30
2018-05-24T22:41:28.879Z,59.50
2018-05-24T22:46:46.290Z,59.10
2018-05-24T22:49:12.767Z,59.90
2018-05-24T22:55:20.863Z,61.30
2018-05-24T23:01:09.178Z,61.60
2018-05-24T23:03:35.777Z,65.30
2018-05-24T23:06:02.822Z,66.50
2018-05-24T23:11:14.106Z,65.60
2018-05-24T23:16:30.065Z,64.80
2018-05-24T23:18:56.358Z,66.40
2018-05-24T23:21:24.746Z,66.20
2018-05-24T23:23:53.504Z,66.10
2018-05-24T23:26:20.817Z,64.20
2018-05-24T23:28:57.480Z,64.00
2018-05-24T23:31:23.757Z,64.90
2018-05-24T23:33:50.075Z,65.00
2018-05-24T23:36:21.023Z,66.30
2018-05-24T23:38:47.667Z,66.10
2018-05-24T23:41:14.393Z,67.30
2018-05-24T23:43:40.783Z,66.60
2018-05-24T23:46:07.781Z,66.60
2018-05-24T23:48:35.329Z,66.70
2018-05-24T23:51:01.779Z,67.10
2018-05-24T23:53:28.206Z,66.80
2018-05-24T23:55:55.044Z,66.80
2018-05-24T23:58:21.486Z,65.50
